Time;durP1;ratioP1;P1;durP2;ratioP2;P2;SDS_P1;SDS_P2;PMS_P1;PMS_P2;Temp;Humidity;BMP_temperature;BMP_pressure;BME280_temperature;BME280_humidity;BME280_pressure;Samples;Min_cycle;Max_cycle;Signal;HPM_P1;HPM_P2
2022/06/29 00:00:43;;;;;;;5.45;3.80;;;;;;;16.27;86.60;101557.44;5029401;28;20034;-60
2022/06/29 00:03:09;;;;;;;6.75;4.32;;;;;;;16.23;86.19;101555.59;5029006;28;20032;-59
2022/06/29 00:05:34;;;;;;;5.20;3.83;;;;;;;16.17;87.35;101555.50;5029636;28;20124;-59
2022/06/29 00:08:00;;;;;;;4.13;3.58;;;;;;;16.12;86.63;101547.53;5028826;28;20029;-59
2022/06/29 00:10:25;;;;;;;3.92;3.60;;;;;;;16.08;88.60;101546.59;5029771;28;20500;-59
2022/06/29 00:12:52;;;;;;;7.10;3.80;;;;;;;16.04;88.05;101550.00;5028602;28;20025;-60
2022/06/29 00:15:19;;;;;;;7.63;4.10;;;;;;;16.01;87.90;101546.44;5029237;28;20646;-58
2022/06/29 00:17:44;;;;;;;4.53;4.00;;;;;;;15.99;86.81;101551.63;5029322;28;20354;-59
2022/06/29 00:20:10;;;;;;;4.25;3.85;;;;;;;15.97;87.78;101542.84;5033691;28;20031;-58
2022/06/29 00:22:36;;;;;;;4.53;3.65;;;;;;;15.97;87.60;101548.09;5037004;28;20024;-59
2022/06/29 00:25:02;;;;;;;5.03;4.00;;;;;;;15.95;87.94;101547.16;5042390;28;20025;-59
2022/06/29 00:27:27;;;;;;;5.55;3.67;;;;;;;15.92;87.70;101539.28;5028416;28;20017;-59
2022/06/29 00:29:53;;;;;;;8.73;4.40;;;;;;;15.90;86.93;101536.59;5028148;28;20087;-59
2022/06/29 00:32:18;;;;;;;5.90;3.67;;;;;;;15.88;86.91;101537.44;5028534;28;20025;-60
2022/06/29 00:34:44;;;;;;;4.60;4.05;;;;;;;15.87;86.28;101541.75;5028429;28;20087;-60
2022/06/29 00:37:10;;;;;;;4.00;3.70;;;;;;;15.85;87.44;101539.13;5041860;28;20033;-60
2022/06/29 00:39:35;;;;;;;5.20;3.70;;;;;;;15.84;87.24;101542.59;5027417;28;20017;-59
2022/06/29 00:42:02;;;;;;;4.57;3.55;;;;;;;15.80;87.26;101532.91;5027697;28;20529;-59
2022/06/29 00:44:27;;;;;;;5.00;4.13;;;;;;;15.77;87.67;101535.47;5028182;28;20550;-59
2022/06/29 00:46:56;;;;;;;7.47;4.20;;;;;;;15.74;87.96;101532.78;5028248;28;20033;-60
2022/06/29 00:49:24;;;;;;;5.32;4.00;;;;;;;15.74;87.83;101527.56;5028036;28;20128;-60
2022/06/29 00:52:16;;;;;;;3.85;3.53;;;;;;;15.71;88.17;101525.78;5028111;28;21080;-59
2022/06/29 00:54:55;;;;;;;7.72;4.68;;;;;;;15.66;88.50;101526.50;5027352;28;20041;-60
2022/06/29 00:57:23;;;;;;;4.47;4.07;;;;;;;15.60;88.44;101517.69;5028097;28;20032;-59
2022/06/29 00:59:54;;;;;;;4.95;4.32;;;;;;;15.59;88.70;101523.78;5020278;28;20013;-59
2022/06/29 01:02:22;;;;;;;5.95;4.15;;;;;;;15.56;88.54;101518.47;5035182;28;20037;-59
2022/06/29 01:04:49;;;;;;;6.38;4.60;;;;;;;15.53;90.42;101515.78;5027195;28;20554;-60
2022/06/29 01:07:17;;;;;;;4.60;4.22;;;;;;;15.47;89.83;101510.47;5027878;28;20112;-59
2022/06/29 01:09:43;;;;;;;7.75;3.90;;;;;;;15.41;90.90;101510.31;5026764;28;20048;-59
2022/06/29 01:12:09;;;;;;;6.25;4.70;;;;;;;15.35;91.81;101511.03;5028192;28;20025;-59
2022/06/29 01:14:34;;;;;;;4.70;4.30;;;;;;;15.29;91.73;101511.78;5027331;28;20420;-58
2022/06/29 01:17:00;;;;;;;6.22;4.80;;;;;;;15.24;92.07;101514.28;5027762;28;20025;-59
2022/06/29 01:19:25;;;;;;;5.68;4.07;;;;;;;15.21;92.15;101511.63;5027652;28;20030;-59
2022/06/29 01:21:52;;;;;;;4.85;4.40;;;;;;;15.18;93.44;101513.28;5026579;28;20025;-59
2022/06/29 01:24:22;;;;;;;9.45;4.70;;;;;;;15.12;94.34;101504.44;5028237;28;20032;-59
2022/06/29 01:26:48;;;;;;;4.82;4.43;;;;;;;15.09;93.96;101520.00;5027350;28;20075;-59
2022/06/29 01:29:15;;;;;;;8.88;5.18;;;;;;;15.05;94.14;101512.97;5024704;28;20053;-60
2022/06/29 01:31:41;;;;;;;6.55;5.13;;;;;;;15.01;94.98;101511.13;5023748;28;20033;-60
2022/06/29 01:34:07;;;;;;;5.10;4.65;;;;;;;14.97;95.19;101509.28;5027444;28;20047;-60
2022/06/29 01:36:32;;;;;;;5.38;4.93;;;;;;;14.93;95.32;101503.09;5026733;28;20025;-59
2022/06/29 01:38:57;;;;;;;5.07;4.65;;;;;;;14.90;96.31;101505.66;5028140;28;20024;-60
2022/06/29 01:41:23;;;;;;;7.07;4.60;;;;;;;14.87;96.31;101506.47;5027382;28;20124;-59
2022/06/29 01:43:48;;;;;;;6.75;4.90;;;;;;;14.84;97.07;101498.53;5027221;28;20030;-59
2022/06/29 01:46:14;;;;;;;6.05;5.47;;;;;;;14.83;96.65;101495.91;5027492;28;20026;-58
2022/06/29 01:48:39;;;;;;;5.18;4.57;;;;;;;14.79;97.41;101500.13;5027072;28;20026;-59
2022/06/29 01:51:04;;;;;;;5.25;4.80;;;;;;;14.75;97.57;101493.94;5027112;28;20025;-59
2022/06/29 01:53:29;;;;;;;6.82;4.47;;;;;;;14.72;98.59;101493.88;5026858;28;20053;-59
2022/06/29 01:55:55;;;;;;;4.93;4.53;;;;;;;14.70;98.48;101494.66;5027215;28;20040;-59
2022/06/29 01:58:20;;;;;;;5.43;4.93;;;;;;;14.65;98.44;101492.84;5027000;28;20047;-58
2022/06/29 02:00:46;;;;;;;6.05;4.78;;;;;;;14.60;98.71;101486.63;5039871;28;20374;-59
2022/06/29 02:03:11;;;;;;;5.75;4.82;;;;;;;14.60;99.00;101489.25;5027365;28;20041;-60
2022/06/29 02:05:37;;;;;;;6.10;4.75;;;;;;;14.57;99.84;101483.94;5027749;28;20097;-60
2022/06/29 02:08:03;;;;;;;5.35;4.80;;;;;;;14.53;99.58;101487.31;5026058;28;20087;-58
2022/06/29 02:10:30;;;;;;;6.25;5.28;;;;;;;14.49;99.12;101480.25;5026321;28;20484;-59
2022/06/29 02:12:55;;;;;;;5.72;5.03;;;;;;;14.47;99.80;101487.13;5027053;28;20021;-59
2022/06/29 02:15:23;;;;;;;7.15;5.28;;;;;;;14.44;99.45;101487.06;5027968;28;20395;-59
2022/06/29 02:17:49;;;;;;;6.10;5.60;;;;;;;14.43;100.00;101482.72;5031499;28;20041;-60
2022/06/29 02:20:14;;;;;;;6.28;5.50;;;;;;;14.38;100.00;101482.56;5030900;28;20877;-59
2022/06/29 02:22:40;;;;;;;5.93;5.30;;;;;;;14.37;100.00;101488.63;5030677;28;20061;-59
2022/06/29 02:25:06;;;;;;;6.43;5.82;;;;;;;14.34;100.00;101486.81;5030682;28;20197;-58
2022/06/29 02:27:32;;;;;;;5.95;5.20;;;;;;;14.33;100.00;101485.06;5031058;28;20022;-59
2022/06/29 02:29:57;;;;;;;6.40;5.80;;;;;;;14.34;100.00;101486.81;5029505;28;20171;-59
2022/06/29 02:35:06;;;;;;;6.50;6.00;;;;;;;14.32;100.00;101491.09;5042846;28;20048;-59
2022/06/29 02:37:32;;;;;;;6.50;5.65;;;;;;;14.34;100.00;101486.81;5032020;28;20029;-59
2022/06/29 02:39:57;;;;;;;6.35;5.68;;;;;;;14.36;100.00;101486.84;5031031;28;20485;-59
2022/06/29 02:42:23;;;;;;;7.78;6.00;;;;;;;14.35;100.00;101488.59;5030058;28;20033;-59
2022/06/29 02:44:48;;;;;;;7.03;6.32;;;;;;;14.38;100.00;101482.56;5031000;28;20064;-58
2022/06/29 02:47:14;;;;;;;6.20;5.70;;;;;;;14.38;100.00;101473.03;5030762;28;20017;-59
2022/06/29 02:49:39;;;;;;;6.82;5.68;;;;;;;14.43;100.00;101474.88;5030697;28;20040;-59
2022/06/29 02:52:05;;;;;;;6.93;6.32;;;;;;;14.45;100.00;101476.69;5030384;28;20079;-59
2022/06/29 02:54:30;;;;;;;7.55;5.88;;;;;;;14.44;100.00;101472.31;5029674;28;20045;-59
2022/06/29 02:56:55;;;;;;;7.25;6.05;;;;;;;14.44;100.00;101474.03;5030503;28;20064;-59
2022/06/29 02:59:22;;;;;;;8.20;6.35;;;;;;;14.41;100.00;101461.78;5029926;28;20017;-59
2022/06/29 03:01:48;;;;;;;7.00;6.40;;;;;;;14.42;100.00;101466.19;5030315;28;20049;-58
2022/06/29 03:04:13;;;;;;;6.68;6.07;;;;;;;14.39;100.00;101463.50;5029773;28;20060;-60
2022/06/29 03:06:39;;;;;;;6.93;6.30;;;;;;;14.36;100.00;101461.69;5030033;28;20818;-59
2022/06/29 03:09:04;;;;;;;7.82;6.35;;;;;;;14.32;100.00;101459.81;5029678;28;20021;-59
2022/06/29 03:11:30;;;;;;;6.97;6.38;;;;;;;14.28;100.00;101460.59;5030776;28;20060;-59
2022/06/29 03:13:55;;;;;;;7.70;6.97;;;;;;;14.24;100.00;101453.53;5028720;28;20021;-59
2022/06/29 03:16:20;;;;;;;7.00;6.40;;;;;;;14.22;100.00;101455.22;5027985;28;20021;-59
2022/06/29 03:18:46;;;;;;;7.43;6.80;;;;;;;14.21;100.00;101448.25;5028820;28;20529;-58
2022/06/29 03:21:12;;;;;;;8.05;7.25;;;;;;;14.21;100.00;101453.47;5028803;28;20039;-58
2022/06/29 03:23:37;;;;;;;8.63;7.93;;;;;;;14.17;100.00;101453.34;5028253;28;20463;-59
2022/06/29 03:26:03;;;;;;;7.80;7.10;;;;;;;14.19;100.00;101447.31;5027404;28;20533;-58
2022/06/29 03:28:28;;;;;;;7.82;7.22;;;;;;;14.15;100.00;101443.75;5027406;28;20022;-59
2022/06/29 03:30:54;;;;;;;9.40;7.93;;;;;;;14.14;100.00;101442.84;5027903;28;20099;-58
2022/06/29 03:33:19;;;;;;;8.82;8.07;;;;;;;14.13;100.00;101443.72;5027077;28;20772;-58
2022/06/29 03:35:44;;;;;;;8.45;7.75;;;;;;;14.12;100.00;101434.13;5028040;28;20030;-59
2022/06/29 03:38:10;;;;;;;9.20;8.35;;;;;;;14.12;100.00;101430.66;5029985;28;20022;-59
2022/06/29 03:40:35;;;;;;;8.68;7.97;;;;;;;14.12;100.00;101428.91;5028845;28;20021;-60
2022/06/29 03:43:01;;;;;;;7.88;7.18;;;;;;;14.10;100.00;101425.41;5029398;28;20033;-59
2022/06/29 03:45:26;;;;;;;9.07;8.35;;;;;;;14.05;100.00;101427.84;5029169;28;20029;-59
2022/06/29 03:47:51;;;;;;;9.77;8.93;;;;;;;14.02;100.00;101421.69;5029678;28;20021;-59
2022/06/29 03:50:17;;;;;;;9.32;8.15;;;;;;;13.99;100.00;101417.28;5029687;28;20033;-59
2022/06/29 03:52:42;;;;;;;8.30;7.70;;;;;;;13.97;100.00;101418.97;5028265;28;20045;-59
2022/06/29 03:55:08;;;;;;;8.63;7.85;;;;;;;13.96;100.00;101416.31;5029401;28;20586;-58
2022/06/29 03:57:34;;;;;;;9.13;8.35;;;;;;;13.95;100.00;101419.75;5028630;28;20037;-59
2022/06/29 03:59:59;;;;;;;9.10;8.30;;;;;;;13.94;100.00;101411.06;5029270;28;20401;-59
2022/06/29 04:02:25;;;;;;;8.75;8.05;;;;;;;13.93;100.00;101412.78;5027296;28;20041;-58
2022/06/29 04:04:51;;;;;;;9.63;8.70;;;;;;;13.92;100.00;101411.00;5028916;28;20057;-59
2022/06/29 04:07:17;;;;;;;9.18;8.38;;;;;;;13.92;100.00;101416.22;5029293;28;20028;-59
2022/06/29 04:09:43;;;;;;;9.60;8.70;;;;;;;13.90;100.00;101404.91;5028234;28;20033;-60
2022/06/29 04:12:08;;;;;;;9.48;8.57;;;;;;;13.93;100.00;101417.09;5027868;28;20053;-60
2022/06/29 04:14:34;;;;;;;8.45;7.63;;;;;;;13.98;100.00;101422.44;5028514;28;20033;-59
2022/06/29 04:17:00;;;;;;;8.55;7.85;;;;;;;14.00;100.00;101423.34;5028554;28;20083;-59
2022/06/29 04:19:25;;;;;;;8.70;7.93;;;;;;;13.99;100.00;101419.88;5029524;28;20500;-59
2022/06/29 04:21:51;;;;;;;9.32;8.48;;;;;;;14.00;100.00;101423.34;5026495;28;20029;-59
2022/06/29 04:24:17;;;;;;;9.52;8.52;;;;;;;13.99;100.00;101425.09;5028922;28;20520;-60
2022/06/29 04:26:43;;;;;;;9.32;8.52;;;;;;;14.02;100.00;101426.88;5028177;28;20021;-59
2022/06/29 04:29:09;;;;;;;8.95;8.23;;;;;;;14.03;100.00;101420.84;5028955;28;20114;-59
2022/06/29 04:31:34;;;;;;;10.02;9.10;;;;;;;14.08;100.00;101411.44;5028734;28;20061;-59
2022/06/29 04:34:01;;;;;;;11.20;10.07;;;;;;;14.11;100.00;101406.28;5028730;28;20017;-59
2022/06/29 04:36:27;;;;;;;10.05;9.27;;;;;;;14.14;100.00;101408.09;5028869;28;20355;-58
2022/06/29 04:38:54;;;;;;;11.07;10.07;;;;;;;14.19;100.00;101403.91;5027579;28;20083;-59
2022/06/29 04:41:21;;;;;;;11.68;10.73;;;;;;;14.22;100.00;101410.91;5028508;28;20048;-59
2022/06/29 04:43:47;;;;;;;10.20;9.32;;;;;;;14.25;100.00;101413.59;5026936;28;20032;-58
2022/06/29 04:46:24;;;;;;;12.30;11.07;;;;;;;14.29;100.00;101423.25;5027694;28;20450;-60
2022/06/29 04:48:59;;;;;;;11.60;10.70;;;;;;;14.34;100.00;101416.44;5027988;28;20180;-59
2022/06/29 04:51:26;;;;;;;11.48;10.60;;;;;;;14.41;100.00;101415.75;5017915;28;20041;-59
2022/06/29 04:53:56;;;;;;;11.75;10.93;;;;;;;14.50;100.00;101419.41;5027706;28;20401;-59
2022/06/29 04:56:28;;;;;;;12.10;11.10;;;;;;;14.59;100.00;101409.22;5026679;28;20507;-59
2022/06/29 04:58:54;;;;;;;11.48;10.48;;;;;;;14.62;100.00;101409.31;5027417;28;20078;-60
2022/06/29 05:01:24;;;;;;;11.07;10.13;;;;;;;14.69;100.00;101407.72;5028205;28;20378;-60
2022/06/29 05:03:50;;;;;;;11.60;10.48;;;;;;;14.80;100.00;101407.09;5027127;28;20052;-60
2022/06/29 05:06:16;;;;;;;11.63;10.52;;;;;;;14.88;100.00;101414.28;5029772;28;20747;-59
2022/06/29 05:08:41;;;;;;;10.73;9.93;;;;;;;14.93;100.00;101403.09;5025798;28;20088;-59
2022/06/29 05:11:09;;;;;;;11.80;10.70;;;;;;;15.03;100.00;101407.66;5025593;28;20144;-59
2022/06/29 05:13:35;;;;;;;11.23;10.23;;;;;;;15.09;100.00;101402.56;5027635;28;20806;-59
2022/06/29 05:16:00;;;;;;;10.32;9.52;;;;;;;15.19;100.00;101394.94;5026095;28;20112;-58
2022/06/29 05:18:26;;;;;;;11.00;10.00;;;;;;;15.28;100.00;101395.16;5027328;28;20385;-59
2022/06/29 05:20:52;;;;;;;11.32;10.27;;;;;;;15.39;100.00;101403.22;5027747;28;20120;-59
2022/06/29 05:23:18;;;;;;;11.57;10.65;;;;;;;15.47;100.00;101400.78;5023379;28;20037;-59
2022/06/29 05:25:44;;;;;;;11.23;10.20;;;;;;;15.57;100.00;101404.44;5023962;28;20034;-58
2022/06/29 05:28:11;;;;;;;11.63;10.60;;;;;;;15.64;100.00;101397.59;5024488;28;20037;-59
2022/06/29 05:30:37;;;;;;;10.52;9.63;;;;;;;15.72;100.00;101390.81;5025208;28;20111;-59
2022/06/29 05:33:02;;;;;;;11.13;10.23;;;;;;;15.81;100.00;101390.97;5025615;28;20120;-59
2022/06/29 05:35:29;;;;;;;10.88;9.90;;;;;;;15.90;98.96;101389.41;5028713;28;20165;-58
2022/06/29 05:37:55;;;;;;;10.52;9.52;;;;;;;16.01;99.45;101387.00;5030008;28;20032;-60
2022/06/29 05:40:20;;;;;;;9.52;8.65;;;;;;;16.11;98.88;101386.31;5030972;28;20048;-60
2022/06/29 05:42:46;;;;;;;9.60;8.70;;;;;;;16.24;98.65;101394.38;5027654;28;20025;-60
2022/06/29 05:45:11;;;;;;;8.82;8.13;;;;;;;16.36;97.10;101383.22;5027507;28;20499;-60
2022/06/29 05:47:36;;;;;;;8.85;7.95;;;;;;;16.48;97.40;101386.03;5026769;28;20547;-60
2022/06/29 05:50:02;;;;;;;8.65;7.85;;;;;;;16.62;96.46;101382.78;5027124;28;20048;-58
2022/06/29 05:52:27;;;;;;;8.57;7.60;;;;;;;16.73;96.32;101377.72;5030884;28;20056;-59
2022/06/29 05:54:53;;;;;;;8.13;7.40;;;;;;;16.87;95.67;101378.81;5031464;28;20021;-59
2022/06/29 05:57:19;;;;;;;7.82;7.00;;;;;;;16.97;94.38;101378.91;5031567;28;20036;-58
2022/06/29 05:59:46;;;;;;;9.23;8.32;;;;;;;17.05;91.73;101377.31;5030810;28;20013;-59
2022/06/29 06:02:11;;;;;;;8.35;7.47;;;;;;;17.16;91.79;101377.47;5031256;28;20090;-59
2022/06/29 06:04:37;;;;;;;9.07;8.23;;;;;;;17.25;90.79;101377.56;5031092;28;20104;-59
2022/06/29 06:07:02;;;;;;;9.32;8.43;;;;;;;17.37;91.33;101381.22;5030281;28;20461;-60
2022/06/29 06:09:28;;;;;;;7.88;7.18;;;;;;;17.47;91.02;101382.19;5030443;28;20028;-60
2022/06/29 06:11:54;;;;;;;8.13;7.38;;;;;;;17.60;90.97;101383.22;5029852;28;20029;-59
2022/06/29 06:14:20;;;;;;;8.13;6.85;;;;;;;17.72;89.88;101388.59;5030232;28;20029;-59
2022/06/29 06:16:45;;;;;;;7.80;7.10;;;;;;;17.84;89.63;101381.75;5029932;28;20496;-60
2022/06/29 06:19:11;;;;;;;7.57;6.50;;;;;;;17.95;88.67;101377.47;5030032;28;20025;-60
2022/06/29 06:21:37;;;;;;;8.00;7.20;;;;;;;18.05;87.44;101382.81;5029298;28;20029;-58
2022/06/29 06:24:03;;;;;;;7.97;6.13;;;;;;;18.20;87.77;101379.50;5030319;28;20021;-57
2022/06/29 06:26:28;;;;;;;6.68;5.97;;;;;;;18.35;87.46;101381.34;5030337;28;20326;-60
2022/06/29 06:28:54;;;;;;;6.00;5.45;;;;;;;18.52;86.83;101378.88;5030506;28;20132;-59
2022/06/29 06:31:19;;;;;;;6.15;5.45;;;;;;;18.71;87.09;101376.34;5030511;28;20116;-59
2022/06/29 06:33:44;;;;;;;6.28;5.70;;;;;;;18.90;87.68;101382.63;5028465;28;20021;-59
2022/06/29 06:36:10;;;;;;;6.70;6.10;;;;;;;19.06;85.16;101387.94;5031133;28;20088;-59
2022/06/29 06:38:35;;;;;;;6.50;5.50;;;;;;;19.17;84.47;101383.66;5030318;28;20732;-58
2022/06/29 06:43:44;;;;;;;6.28;5.45;;;;;;;19.49;82.44;101381.16;5030764;28;20036;-58
2022/06/29 06:46:09;;;;;;;6.00;5.40;;;;;;;19.66;82.23;101379.44;5030982;28;20025;-59
2022/06/29 06:48:35;;;;;;;6.05;5.45;;;;;;;19.79;80.77;101379.47;5030496;28;20599;-59
2022/06/29 06:51:00;;;;;;;6.82;5.70;;;;;;;19.87;78.57;101377.75;5030909;28;20029;-59
2022/06/29 06:53:26;;;;;;;6.32;5.30;;;;;;;19.99;79.16;101376.88;5031002;28;20576;-59
2022/06/29 06:55:52;;;;;;;5.07;4.68;;;;;;;20.12;78.97;101369.91;5029979;28;20083;-59
2022/06/29 06:58:17;;;;;;;7.07;6.03;;;;;;;20.23;77.98;101379.56;5028277;28;20036;-59
2022/06/29 07:00:45;;;;;;;5.70;4.63;;;;;;;20.40;78.44;101371.66;5029093;28;20033;-59
2022/06/29 07:03:10;;;;;;;4.00;3.60;;;;;;;20.60;78.49;101371.63;5029256;28;20034;-59
2022/06/29 07:05:35;;;;;;;8.65;4.60;;;;;;;20.79;77.27;101371.59;5030416;28;20023;-59
2022/06/29 07:08:01;;;;;;;7.95;5.10;;;;;;;20.80;74.97;101373.34;5029730;28;20029;-59
2022/06/29 07:10:26;;;;;;;7.00;4.80;;;;;;;20.68;74.85;101389.16;5030277;28;20029;-59
2022/06/29 07:12:53;;;;;;;5.35;3.65;;;;;;;20.59;75.99;101382.16;5029583;28;20083;-59
2022/06/29 07:15:18;;;;;;;5.28;3.85;;;;;;;20.50;75.84;101383.06;5029998;28;20401;-60
2022/06/29 07:17:43;;;;;;;4.28;3.85;;;;;;;20.37;77.03;101376.91;5040906;28;20032;-59
2022/06/29 07:20:09;;;;;;;6.47;4.05;;;;;;;20.32;77.93;101376.94;5032218;28;20375;-59
2022/06/29 07:22:35;;;;;;;4.40;3.30;;;;;;;20.33;78.71;101378.69;5029205;28;20040;-60
2022/06/29 07:25:00;;;;;;;4.60;4.20;;;;;;;20.38;78.22;101382.19;5029579;28;20025;-60
2022/06/29 07:27:27;;;;;;;5.90;3.47;;;;;;;20.50;78.51;101381.31;5029537;28;20021;-59
2022/06/29 07:29:52;;;;;;;4.47;3.30;;;;;;;20.61;78.57;101383.94;5030051;28;20029;-59
2022/06/29 07:32:19;;;;;;;3.15;2.83;;;;;;;20.72;77.34;101381.25;5027444;28;20017;-59
2022/06/29 07:34:44;;;;;;;5.18;2.95;;;;;;;20.92;76.08;101369.78;5029209;28;20083;-59
2022/06/29 07:37:10;;;;;;;5.22;2.85;;;;;;;21.21;76.19;101373.25;5028693;28;20045;-59
2022/06/29 07:39:36;;;;;;;3.42;2.97;;;;;;;21.48;74.19;101374.00;5029330;28;20627;-59
2022/06/29 07:42:01;;;;;;;2.72;2.30;;;;;;;21.68;72.81;101365.97;5029795;28;20057;-59
2022/06/29 07:44:26;;;;;;;3.03;2.22;;;;;;;21.94;71.69;101364.97;5029471;28;20025;-60
2022/06/29 07:46:52;;;;;;;3.35;2.40;;;;;;;22.14;69.49;101368.34;5029359;28;20029;-59
2022/06/29 07:49:17;;;;;;;3.00;2.20;;;;;;;22.26;65.39;101357.66;5028855;28;20128;-58
2022/06/29 07:51:42;;;;;;;2.83;1.98;;;;;;;22.45;66.63;101364.56;5029310;28;20432;-59
2022/06/29 07:54:08;;;;;;;3.03;1.70;;;;;;;22.62;63.76;101367.00;5029084;28;20037;-59
2022/06/29 07:56:36;;;;;;;2.58;1.70;;;;;;;22.83;63.35;101359.78;5029443;28;20032;-60
2022/06/29 07:59:01;;;;;;;3.72;1.73;;;;;;;22.98;62.11;101364.91;5028041;28;20021;-60
2022/06/29 08:01:27;;;;;;;4.72;2.22;;;;;;;22.99;59.34;101361.34;5029349;28;20450;-59
2022/06/29 08:03:53;;;;;;;4.03;1.80;;;;;;;22.95;59.69;101364.94;5029228;28;20116;-59
2022/06/29 08:06:18;;;;;;;4.35;2.05;;;;;;;22.97;58.54;101354.34;5029028;28;20010;-59
2022/06/29 08:08:44;;;;;;;4.15;1.50;;;;;;;23.12;60.60;101355.91;5029345;28;20030;-59
2022/06/29 08:11:09;;;;;;;2.78;1.60;;;;;;;23.29;60.51;101358.34;5028875;28;20025;-59
2022/06/29 08:13:35;;;;;;;4.13;1.95;;;;;;;23.49;60.84;101352.78;5027953;28;20052;-59
2022/06/29 08:16:00;;;;;;;2.45;1.67;;;;;;;23.75;60.74;101348.03;5029394;28;20079;-59
2022/06/29 08:18:26;;;;;;;2.85;1.40;;;;;;;23.99;61.19;101351.19;5028777;28;20021;-59
2022/06/29 08:20:51;;;;;;;3.13;1.77;;;;;;;24.05;59.65;101353.72;5028843;28;20072;-58
2022/06/29 08:23:16;;;;;;;1.60;1.35;;;;;;;24.09;59.57;101343.94;5028156;28;20453;-58
2022/06/29 08:25:42;;;;;;;2.28;1.60;;;;;;;24.29;59.09;101342.75;5028952;28;20024;-58
2022/06/29 08:28:07;;;;;;;3.50;1.50;;;;;;;24.54;58.01;101347.59;5029047;28;20033;-59
2022/06/29 08:30:32;;;;;;;2.38;1.40;;;;;;;24.76;56.15;101340.13;5028316;28;20056;-59
2022/06/29 08:32:59;;;;;;;2.97;1.25;;;;;;;24.96;55.78;101340.66;5027762;28;20393;-59
2022/06/29 08:35:24;;;;;;;2.08;1.70;;;;;;;25.11;56.04;101343.00;5028379;28;20029;-59
2022/06/29 08:37:50;;;;;;;2.85;1.63;;;;;;;25.26;55.31;101335.59;5029063;28;20037;-59
2022/06/29 08:40:17;;;;;;;3.20;1.67;;;;;;;25.28;52.85;101339.09;5027367;28;20031;-59
2022/06/29 08:42:44;;;;;;;1.83;1.58;;;;;;;25.45;52.38;101341.38;5028595;28;20111;-58
2022/06/29 08:45:12;;;;;;;3.17;1.48;;;;;;;25.62;52.97;101340.97;5028484;28;20033;-59
2022/06/29 08:47:40;;;;;;;2.90;1.33;;;;;;;25.73;51.70;101339.88;5028258;28;20029;-59
2022/06/29 08:50:10;;;;;;;2.85;1.50;;;;;;;25.85;49.07;101336.91;5027978;28;20021;-59
2022/06/29 08:52:36;;;;;;;3.08;1.45;;;;;;;25.91;49.41;101338.56;5029150;28;20098;-59
2022/06/29 08:55:04;;;;;;;2.45;1.30;;;;;;;26.05;50.39;101338.19;5028135;28;20104;-59
2022/06/29 08:57:30;;;;;;;2.47;1.20;;;;;;;26.25;50.64;101332.38;5028173;28;20381;-58
2022/06/29 08:59:56;;;;;;;1.35;1.00;;;;;;;26.36;48.97;101333.91;5028373;28;20032;-59
2022/06/29 09:02:22;;;;;;;1.85;1.17;;;;;;;26.51;49.75;101337.94;5028059;28;20139;-59
2022/06/29 09:04:47;;;;;;;2.58;1.27;;;;;;;26.43;48.40;101331.94;5028234;28;20021;-59
2022/06/29 09:07:13;;;;;;;2.63;1.42;;;;;;;26.24;50.55;101335.06;5028436;28;20034;-59
2022/06/29 09:09:58;;;;;;;3.70;1.40;;;;;;;25.97;50.00;101333.09;5029298;28;20032;-59
2022/06/29 09:12:24;;;;;;;4.35;1.10;;;;;;;25.66;51.20;101334.72;5026989;28;20057;-59
2022/06/29 09:14:50;;;;;;;3.25;1.15;;;;;;;25.52;50.51;101337.69;5027775;28;20106;-59
2022/06/29 09:17:17;;;;;;;1.98;1.10;;;;;;;25.49;51.74;101332.41;5029729;28;20041;-59
2022/06/29 09:19:45;;;;;;;1.73;1.08;;;;;;;25.69;54.17;101343.53;5027142;28;20075;-59
2022/06/29 09:22:12;;;;;;;2.30;1.30;;;;;;;25.95;52.45;101339.34;5027546;28;20021;-59
2022/06/29 09:24:37;;;;;;;3.20;1.58;;;;;;;26.18;51.63;101336.09;5029877;28;20057;-59
2022/06/29 09:27:05;;;;;;;1.75;1.27;;;;;;;26.32;49.86;101333.06;5031048;28;20048;-59
2022/06/29 09:29:33;;;;;;;2.42;1.23;;;;;;;26.32;50.70;101327.78;5032016;28;20104;-59
2022/06/29 09:32:01;;;;;;;1.80;0.90;;;;;;;26.26;47.72;101334.09;5031042;28;20032;-59
2022/06/29 09:34:32;;;;;;;0.95;0.80;;;;;;;26.19;50.02;101329.03;5032317;28;20059;-59
2022/06/29 09:37:00;;;;;;;3.28;1.02;;;;;;;26.12;48.58;101329.16;5032798;28;20030;-59
2022/06/29 09:39:37;;;;;;;2.00;0.88;;;;;;;26.14;49.87;101324.69;5028801;28;20025;-58
2022/06/29 09:42:04;;;;;;;1.10;0.88;;;;;;;26.25;49.14;101337.69;5026596;28;20559;-59
2022/06/29 09:44:30;;;;;;;1.63;0.88;;;;;;;26.37;48.94;101328.53;5030415;28;20116;-59
2022/06/29 09:46:57;;;;;;;1.88;1.35;;;;;;;26.46;47.51;101334.53;5030230;28;20828;-58
2022/06/29 09:49:28;;;;;;;3.58;0.85;;;;;;;26.47;46.75;101320.34;5030978;28;20347;-59
2022/06/29 09:51:59;;;;;;;2.78;1.15;;;;;;;26.73;48.36;101326.72;5030844;28;20408;-58
2022/06/29 09:54:31;;;;;;;1.88;1.33;;;;;;;26.94;47.19;101327.88;5030503;28;20104;-59
2022/06/29 09:56:57;;;;;;;2.25;1.15;;;;;;;27.11;46.79;101336.28;5031472;28;20028;-59
2022/06/29 10:02:34;;;;;;;2.65;0.88;;;;;;;27.05;45.07;101332.91;5030772;28;20017;-58
2022/06/29 10:05:00;;;;;;;3.75;1.00;;;;;;;27.36;43.78;101328.44;5017467;28;20036;-59
2022/06/29 10:07:28;;;;;;;2.03;0.75;;;;;;;27.20;41.57;101322.72;5030555;28;20566;-58
2022/06/29 10:09:55;;;;;;;1.92;0.90;;;;;;;27.40;43.10;101326.53;5029952;28;20060;-59
2022/06/29 10:15:40;;;;;;;1.35;0.85;;;;;;;27.73;45.21;101328.19;4997909;28;20529;-59
2022/06/29 10:18:23;;;;;;;1.13;0.80;;;;;;;27.90;44.09;101315.16;5028083;28;20057;-59
2022/06/29 10:20:51;;;;;;;1.10;1.00;;;;;;;28.00;41.83;101315.75;5031232;28;20048;-59
2022/06/29 10:23:42;;;;;;;4.00;0.88;;;;;;;28.02;42.10;101318.34;5029335;28;20029;-59
2022/06/29 10:26:34;;;;;;;2.08;1.00;;;;;;;28.04;40.48;101309.41;5042515;28;20395;-58
2022/06/29 10:29:05;;;;;;;1.50;0.88;;;;;;;28.15;40.35;101310.81;5017382;28;20021;-59
2022/06/29 10:31:49;;;;;;;4.22;0.88;;;;;;;28.26;42.11;101305.94;5030704;28;20067;-60
2022/06/29 10:34:26;;;;;;;2.55;1.08;;;;;;;28.42;43.56;101310.78;5031029;28;20096;-59
2022/06/29 10:37:13;;;;;;;1.98;1.10;;;;;;;28.42;39.87;101292.13;5030728;28;20029;-59
2022/06/29 10:39:48;;;;;;;1.02;0.90;;;;;;;28.54;41.67;101298.78;5030666;28;20033;-59
2022/06/29 10:45:17;;;;;;;2.03;1.00;;;;;;;28.60;40.97;101298.59;5031008;28;20546;-59
2022/06/29 10:48:07;;;;;;;1.88;0.90;;;;;;;28.73;42.39;101298.97;5030579;28;20523;-59
2022/06/29 10:50:33;;;;;;;3.40;1.02;;;;;;;28.70;39.36;101283.09;5029625;28;20148;-59
2022/06/29 10:53:03;;;;;;;2.55;0.90;;;;;;;28.81;38.96;101285.34;5030458;28;20102;-59
2022/06/29 10:55:30;;;;;;;2.15;0.80;;;;;;;28.89;40.67;101277.91;5030059;28;20034;-59
2022/06/29 10:57:57;;;;;;;2.92;1.23;;;;;;;28.99;40.77;101283.81;5030695;28;20096;-59
2022/06/29 11:00:25;;;;;;;4.07;1.55;;;;;;;28.99;40.27;101272.22;5043259;28;20166;-60
2022/06/29 11:02:51;;;;;;;4.05;1.55;;;;;;;29.09;41.69;101272.78;5031263;28;20021;-59
2022/06/29 11:05:16;;;;;;;2.45;1.17;;;;;;;28.83;40.47;101272.84;5030031;28;20478;-59
2022/06/29 11:13:20;;;;;;;2.20;1.08;;;;;;;28.39;40.10;101263.78;5029782;28;20072;-59
2022/06/29 11:15:49;;;;;;;3.85;1.13;;;;;;;28.41;40.49;101266.41;5029906;28;20053;-59
2022/06/29 11:18:20;;;;;;;1.15;0.85;;;;;;;28.40;41.23;101270.00;5029217;28;20052;-59
2022/06/29 11:20:48;;;;;;;2.17;1.08;;;;;;;28.61;39.98;101267.44;5029759;28;20033;-59
2022/06/29 11:23:16;;;;;;;2.20;1.20;;;;;;;28.68;39.44;101266.28;5029761;28;20025;-59
2022/06/29 11:25:46;;;;;;;1.23;1.05;;;;;;;28.64;38.92;101264.66;5030360;28;20496;-59
2022/06/29 11:28:12;;;;;;;2.22;1.52;;;;;;;28.61;38.25;101259.44;5043584;28;20041;-59
2022/06/29 11:30:37;;;;;;;1.45;1.00;;;;;;;28.41;38.74;101256.63;5029686;28;20032;-59
2022/06/29 11:33:10;;;;;;;1.40;1.15;;;;;;;28.31;38.64;101256.97;5029737;28;20033;-59
2022/06/29 11:35:38;;;;;;;1.20;0.90;;;;;;;27.98;40.18;101259.00;5029866;28;20025;-59
2022/06/29 11:38:05;;;;;;;2.00;1.00;;;;;;;27.84;39.55;101259.50;5029052;28;20021;-59
2022/06/29 11:40:35;;;;;;;2.15;0.98;;;;;;;27.78;41.43;101251.72;5029406;28;20029;-60